createdAt,value
2022-08-03T00:05:37.379Z,101132.91
2022-08-03T00:11:24.491Z,101138.72
2022-08-03T00:17:11.441Z,101127.97
2022-08-03T00:22:58.380Z,101126.50
2022-08-03T00:28:45.106Z,101125.63
2022-08-03T00:34:57.946Z,101126.03
2022-08-03T00:40:39.330Z,101120.91
2022-08-03T00:46:26.188Z,101116.47
2022-08-03T00:52:14.021Z,101117.97
2022-08-03T00:58:05.012Z,101126.75
2022-08-03T01:03:51.838Z,101115.16
2022-08-03T01:09:48.951Z,101117.94
2022-08-03T01:15:45.811Z,101122.66
2022-08-03T01:21:40.500Z,101119.81
2022-08-03T01:28:05.222Z,101113.97
2022-08-03T01:34:00.375Z,101116.00
2022-08-03T01:39:49.131Z,101113.31
2022-08-03T01:45:37.387Z,101122.84
2022-08-03T01:51:24.279Z,101131.31
2022-08-03T01:57:31.337Z,101135.94
2022-08-03T02:03:20.203Z,101135.81
2022-08-03T02:09:08.109Z,101130.75
2022-08-03T02:14:57.031Z,101126.41
2022-08-03T02:20:47.714Z,101121.88
2022-08-03T02:26:38.514Z,101128.16
2022-08-03T02:32:31.397Z,101134.50
2022-08-03T02:38:21.229Z,101120.50
2022-08-03T02:44:10.956Z,101122.50
2022-08-03T02:49:59.884Z,101118.25
2022-08-03T02:55:47.645Z,101106.84
2022-08-03T03:01:34.394Z,101110.13
2022-08-03T03:07:21.627Z,101109.34
2022-08-03T03:13:09.689Z,101088.97
2022-08-03T03:18:58.518Z,101087.38
2022-08-03T03:24:47.357Z,101075.53
2022-08-03T03:30:34.785Z,101077.09
2022-08-03T03:36:21.653Z,101072.00
2022-08-03T03:42:08.560Z,101078.72
2022-08-03T03:47:55.330Z,101073.00
2022-08-03T03:53:54.726Z,101062.69
2022-08-03T03:59:43.609Z,101071.53
2022-08-03T04:05:48.982Z,101086.06
2022-08-03T04:11:43.747Z,101079.81
2022-08-03T04:17:31.769Z,101093.72
2022-08-03T04:23:22.361Z,101086.34
2022-08-03T04:29:11.493Z,101101.31
2022-08-03T04:34:58.390Z,101109.75
2022-08-03T04:40:46.692Z,101117.44
2022-08-03T04:46:37.058Z,101112.34
2022-08-03T04:52:24.440Z,101122.06
2022-08-03T04:58:12.610Z,101128.47
2022-08-03T05:03:59.580Z,101128.47
2022-08-03T05:09:50.620Z,101127.66
2022-08-03T05:15:43.135Z,101128.44
2022-08-03T05:21:41.663Z,101127.47
2022-08-03T05:27:36.970Z,101136.97
2022-08-03T05:33:23.718Z,101138.06
2022-08-03T05:39:10.548Z,101145.94
2022-08-03T05:44:57.391Z,101130.72
2022-08-03T05:50:44.782Z,101133.66
2022-08-03T05:56:31.880Z,101126.97
2022-08-03T06:02:18.900Z,101125.75
2022-08-03T06:08:06.062Z,101121.16
2022-08-03T06:13:52.938Z,101124.09
2022-08-03T06:19:40.031Z,101135.75
2022-08-03T06:25:27.666Z,101137.53
2022-08-03T06:31:14.562Z,101136.88
2022-08-03T06:37:02.287Z,101129.94
2022-08-03T06:42:53.496Z,101135.34
2022-08-03T06:48:41.922Z,101136.63
2022-08-03T06:54:30.203Z,101137.44
2022-08-03T07:00:20.269Z,101135.63
2022-08-03T07:06:07.690Z,101133.28
2022-08-03T07:11:55.351Z,101136.84
2022-08-03T07:17:42.192Z,101128.75
2022-08-03T07:23:28.913Z,101141.75
2022-08-03T07:29:18.177Z,101157.78
2022-08-03T07:35:08.768Z,101152.91
2022-08-03T07:41:11.068Z,101156.09
2022-08-03T07:46:58.009Z,101144.41
2022-08-03T07:52:47.982Z,101160.38
2022-08-03T07:58:36.430Z,101157.66
2022-08-03T08:04:23.834Z,101167.72
2022-08-03T08:10:11.315Z,101157.69
2022-08-03T08:15:58.213Z,101159.88
2022-08-03T08:21:53.412Z,101151.78
2022-08-03T08:28:29.459Z,101150.41
2022-08-03T08:34:04.639Z,101153.91
2022-08-03T08:39:59.536Z,101144.50
2022-08-03T08:45:52.131Z,101138.69
2022-08-03T08:51:54.501Z,101139.78
2022-08-03T08:58:01.633Z,101137.50
2022-08-03T09:03:49.766Z,101134.91
2022-08-03T09:10:11.872Z,101154.41
2022-08-03T09:16:00.615Z,101142.34
2022-08-03T09:22:17.626Z,101152.03
2022-08-03T09:28:11.269Z,101132.41
2022-08-03T09:34:01.297Z,101137.69
2022-08-03T09:39:48.134Z,101135.28
2022-08-03T09:45:36.853Z,101128.06
2022-08-03T09:51:33.263Z,101123.00
2022-08-03T09:57:31.924Z,101111.19
2022-08-03T10:09:09.657Z,101110.66
2022-08-03T10:14:56.478Z,101100.63
2022-08-03T10:20:54.541Z,101108.22
2022-08-03T10:26:49.590Z,101086.03
2022-08-03T10:32:57.529Z,101076.00
2022-08-03T10:38:52.991Z,101099.69
2022-08-03T10:44:42.391Z,101085.63
2022-08-03T10:50:29.533Z,101089.22
2022-08-03T10:56:54.670Z,101089.97
2022-08-03T11:03:11.563Z,101076.78
2022-08-03T11:09:10.901Z,101064.97
2022-08-03T11:15:03.613Z,101057.47
2022-08-03T11:20:50.378Z,101058.66
2022-08-03T11:26:37.193Z,101062.97
2022-08-03T11:32:46.846Z,101066.84
2022-08-03T11:38:35.464Z,101077.56
2022-08-03T11:44:41.544Z,101074.06
2022-08-03T11:50:38.152Z,101059.31
2022-08-03T11:56:25.694Z,101070.06
2022-08-03T12:02:23.573Z,101062.34
2022-08-03T12:08:33.088Z,101063.94
2022-08-03T12:14:50.547Z,101072.44
2022-08-03T12:20:35.220Z,101065.41
2022-08-03T12:26:22.252Z,101061.47
2022-08-03T12:32:14.793Z,101061.41
2022-08-03T12:38:07.692Z,101060.81
2022-08-03T12:43:55.176Z,101046.50
2022-08-03T12:49:46.673Z,101046.63
2022-08-03T12:55:57.901Z,101055.50
2022-08-03T13:01:54.809Z,101048.03
2022-08-03T13:07:54.541Z,101039.53
2022-08-03T13:13:41.529Z,101025.88
2022-08-03T13:19:28.493Z,101034.88
2022-08-03T13:25:15.395Z,101035.16
2022-08-03T13:31:02.523Z,101029.44
2022-08-03T13:37:08.359Z,101020.66
2022-08-03T13:42:56.455Z,101034.28
2022-08-03T13:48:43.353Z,101038.19
2022-08-03T13:54:30.826Z,101028.03
2022-08-03T14:00:26.632Z,101029.16
2022-08-03T14:06:16.032Z,101028.84
2022-08-03T14:12:07.226Z,101023.28
2022-08-03T14:17:58.793Z,101021.44
2022-08-03T14:23:45.811Z,101012.31
2022-08-03T14:29:32.671Z,100999.88
2022-08-03T14:35:19.446Z,101002.41
2022-08-03T14:41:12.068Z,100995.53
2022-08-03T14:47:06.754Z,100990.66
2022-08-03T14:52:53.796Z,100989.88
2022-08-03T14:58:40.727Z,100983.06
2022-08-03T15:04:30.055Z,100967.50
2022-08-03T15:10:17.461Z,100970.97
2022-08-03T15:16:04.702Z,100964.28
2022-08-03T15:21:51.533Z,100966.66
2022-08-03T15:28:03.941Z,100964.22
2022-08-03T15:33:46.150Z,100964.28
2022-08-03T15:39:33.358Z,100964.19
2022-08-03T15:45:42.042Z,100963.88
2022-08-03T15:51:28.887Z,100958.50
2022-08-03T15:57:15.557Z,100964.38
2022-08-03T16:03:02.429Z,100971.03
2022-08-03T16:08:49.180Z,100959.00
2022-08-03T16:14:46.848Z,100958.56
2022-08-03T16:20:38.531Z,100958.06
2022-08-03T16:26:28.656Z,100957.25
2022-08-03T16:32:18.824Z,100960.34
2022-08-03T16:38:09.757Z,100956.94
2022-08-03T16:43:57.169Z,100964.03
2022-08-03T16:49:55.210Z,100948.31
2022-08-03T16:55:53.676Z,100961.00
2022-08-03T17:01:41.281Z,100966.59
2022-08-03T17:07:30.706Z,100961.56
2022-08-03T17:13:22.984Z,100956.56
2022-08-03T17:19:28.887Z,100949.16
2022-08-03T17:25:21.763Z,100950.75
2022-08-03T17:31:31.826Z,100955.06
2022-08-03T17:37:50.577Z,100957.09
2022-08-03T17:44:13.761Z,100959.44
2022-08-03T17:49:40.013Z,100961.78
2022-08-03T17:55:56.382Z,100963.31
2022-08-03T18:02:12.208Z,100969.94
2022-08-03T18:08:11.682Z,100958.63
2022-08-03T18:14:20.637Z,100971.47
2022-08-03T18:20:34.341Z,100965.59
2022-08-03T18:26:20.934Z,100971.03
2022-08-03T18:32:13.705Z,100970.53
2022-08-03T18:38:05.976Z,100980.56
2022-08-03T18:44:06.999Z,100975.75
2022-08-03T18:50:26.354Z,100968.03
2022-08-03T18:56:22.267Z,100973.16
2022-08-03T19:02:32.196Z,100976.97
2022-08-03T19:08:36.970Z,100980.75
2022-08-03T19:14:34.866Z,100983.38
2022-08-03T19:20:26.562Z,100985.75
2022-08-03T19:26:29.878Z,101001.91
2022-08-03T19:32:23.811Z,101001.41
2022-08-03T19:38:11.461Z,100992.56
2022-08-03T19:44:01.816Z,101018.91
2022-08-03T19:50:05.736Z,101003.94
2022-08-03T19:55:59.665Z,101013.94
2022-08-03T20:01:50.247Z,101025.44
2022-08-03T20:07:38.814Z,101034.03
2022-08-03T20:13:28.342Z,101028.09
2022-08-03T20:19:21.727Z,101042.09
2022-08-03T20:25:11.415Z,101035.81
2022-08-03T20:31:03.710Z,101045.19
2022-08-03T20:36:55.360Z,101041.66
2022-08-03T20:42:42.531Z,101047.75
2022-08-03T20:48:36.076Z,101046.88
2022-08-03T20:54:31.576Z,101046.44
2022-08-03T21:00:27.111Z,101047.81
2022-08-03T21:06:27.721Z,101031.78
2022-08-03T21:12:27.462Z,101033.47
2022-08-03T21:18:21.179Z,101036.38
2022-08-03T21:24:12.879Z,101032.53
2022-08-03T21:30:06.953Z,101039.94
2022-08-03T21:35:59.212Z,101035.97
2022-08-03T21:41:48.564Z,101042.75
2022-08-03T21:47:56.142Z,101050.63
2022-08-03T21:54:04.347Z,101053.84
2022-08-03T21:59:56.589Z,101075.75
2022-08-03T22:05:49.666Z,101065.59
2022-08-03T22:11:37.616Z,101066.75
2022-08-03T22:17:54.185Z,101075.00
2022-08-03T22:23:44.554Z,101066.19
2022-08-03T22:29:34.304Z,101065.47
2022-08-03T22:35:24.238Z,101062.72
2022-08-03T22:41:11.540Z,101069.63
2022-08-03T22:47:01.113Z,101067.97
2022-08-03T22:52:48.025Z,101087.41
2022-08-03T22:58:40.573Z,101102.97
2022-08-03T23:04:29.197Z,101095.03
2022-08-03T23:10:16.292Z,101093.34
2022-08-03T23:16:12.259Z,101080.88
2022-08-03T23:22:04.057Z,101068.09
2022-08-03T23:28:05.026Z,101067.41
2022-08-03T23:34:17.257Z,101058.28
2022-08-03T23:40:09.963Z,101065.34
2022-08-03T23:46:00.818Z,101066.53
2022-08-03T23:52:01.886Z,101051.06
2022-08-03T23:58:17.746Z,101050.91
